createdAt,value
2019-01-21T00:01:50.417Z,-3.37
2019-01-21T00:04:19.211Z,-3.46
2019-01-21T00:06:48.109Z,-3.51
2019-01-21T00:09:16.991Z,-3.59
2019-01-21T00:11:45.882Z,-3.60
2019-01-21T00:14:14.765Z,-3.62
2019-01-21T00:16:43.668Z,-3.64
2019-01-21T00:19:13.717Z,-3.66
2019-01-21T00:21:42.681Z,-3.66
2019-01-21T00:24:11.490Z,-3.73
2019-01-21T00:26:40.375Z,-3.81
2019-01-21T00:29:09.319Z,-3.86
2019-01-21T00:31:38.195Z,-3.86
2019-01-21T00:34:06.981Z,-3.91
2019-01-21T00:36:35.787Z,-3.94
2019-01-21T00:39:07.187Z,-3.95
2019-01-21T00:41:36.057Z,-3.98
2019-01-21T00:44:05.009Z,-4.01
2019-01-21T00:46:33.867Z,-4.05
2019-01-21T00:49:02.623Z,-4.08
2019-01-21T00:51:31.443Z,-4.12
2019-01-21T00:54:00.332Z,-4.08
2019-01-21T00:56:29.143Z,-4.08
2019-01-21T00:58:58.009Z,-4.12
2019-01-21T01:01:27.057Z,-4.14
2019-01-21T01:03:55.993Z,-4.20
2019-01-21T01:06:24.888Z,-4.22
2019-01-21T01:08:53.844Z,-4.22
2019-01-21T01:11:22.802Z,-4.28
2019-01-21T01:13:51.615Z,-4.34
2019-01-21T01:16:20.487Z,-4.41
2019-01-21T01:18:49.287Z,-4.44
2019-01-21T01:21:18.092Z,-4.47
2019-01-21T01:23:46.967Z,-4.47
2019-01-21T01:26:15.909Z,-4.49
2019-01-21T01:28:44.714Z,-4.48
2019-01-21T01:31:13.580Z,-4.47
2019-01-21T01:33:42.377Z,-4.43
2019-01-21T01:36:11.317Z,-4.42
2019-01-21T01:38:40.216Z,-4.46
2019-01-21T01:41:09.109Z,-4.44
2019-01-21T01:43:37.996Z,-4.49
2019-01-21T01:46:06.868Z,-4.50
2019-01-21T01:48:35.824Z,-4.54
2019-01-21T01:51:04.856Z,-4.54
2019-01-21T01:53:34.781Z,-4.51
2019-01-21T01:56:04.126Z,-4.54
2019-01-21T01:58:33.005Z,-4.54
2019-01-21T02:01:01.880Z,-4.60
2019-01-21T02:03:30.668Z,-4.64
2019-01-21T02:05:59.946Z,-4.66
2019-01-21T02:08:29.014Z,-4.67
2019-01-21T02:10:57.956Z,-4.66
2019-01-21T02:13:26.848Z,-4.67
2019-01-21T02:15:56.443Z,-4.69
2019-01-21T02:18:26.507Z,-4.75
2019-01-21T02:20:58.408Z,-4.76
2019-01-21T02:23:31.753Z,-4.76
2019-01-21T02:26:02.458Z,-4.75
2019-01-21T02:29:01.730Z,-4.71
2019-01-21T02:32:17.790Z,-4.66
2019-01-21T02:35:14.990Z,-4.64
2019-01-21T02:38:17.101Z,-4.61
2019-01-21T02:41:01.833Z,-4.59
2019-01-21T02:43:56.330Z,-4.64
2019-01-21T02:46:58.116Z,-4.66
2019-01-21T02:50:07.283Z,-4.72
2019-01-21T02:53:17.963Z,-4.58
2019-01-21T02:56:02.725Z,-4.50
2019-01-21T02:59:06.989Z,-4.10
2019-01-21T03:02:05.848Z,-4.01
2019-01-21T03:05:00.881Z,-4.19
2019-01-21T03:07:39.390Z,-4.60
2019-01-21T03:10:25.931Z,-4.72
2019-01-21T03:13:38.016Z,-4.59
2019-01-21T03:16:27.964Z,-4.60
2019-01-21T03:19:30.215Z,-4.74
2019-01-21T03:22:34.910Z,-4.73
2019-01-21T03:25:35.779Z,-4.83
2019-01-21T03:28:31.297Z,-4.86
2019-01-21T03:31:44.127Z,-4.93
2019-01-21T03:34:45.875Z,-5.06
2019-01-21T03:38:03.886Z,-5.10
2019-01-21T03:40:58.043Z,-5.15
2019-01-21T03:43:49.452Z,-5.16
2019-01-21T03:46:50.600Z,-5.12
2019-01-21T03:49:35.845Z,-5.08
2019-01-21T03:52:38.521Z,-5.24
2019-01-21T03:55:11.696Z,-5.27
2019-01-21T03:58:24.669Z,-5.50
2019-01-21T04:01:12.699Z,-5.39
2019-01-21T04:04:33.752Z,-5.40
2019-01-21T04:07:16.342Z,-5.46
2019-01-21T04:10:31.653Z,-5.58
2019-01-21T04:13:16.714Z,-5.52
2019-01-21T04:16:11.223Z,-5.53
2019-01-21T04:19:06.464Z,-5.54
2019-01-21T04:21:47.650Z,-5.59
2019-01-21T04:24:55.634Z,-5.59
2019-01-21T04:28:01.231Z,-5.63
2019-01-21T04:31:26.508Z,-5.63
2019-01-21T04:34:32.384Z,-5.68
2019-01-21T04:37:41.285Z,-5.85
2019-01-21T04:40:51.960Z,-5.90
2019-01-21T04:43:55.021Z,-5.89
2019-01-21T04:46:35.450Z,-6.03
2019-01-21T04:49:46.346Z,-6.10
2019-01-21T04:53:11.656Z,-6.15
2019-01-21T04:56:32.491Z,-6.19
2019-01-21T04:59:32.901Z,-6.25
2019-01-21T05:02:27.504Z,-6.27
2019-01-21T05:05:39.708Z,-6.33
2019-01-21T05:08:36.659Z,-6.33
2019-01-21T05:11:38.928Z,-6.35
2019-01-21T05:14:33.194Z,-6.33
2019-01-21T05:17:35.090Z,-6.27
2019-01-21T05:20:28.248Z,-6.33
2019-01-21T05:23:36.589Z,-6.37
2019-01-21T05:26:44.930Z,-6.38
2019-01-21T05:29:44.850Z,-6.43
2019-01-21T05:32:49.979Z,-6.38
2019-01-21T05:35:44.511Z,-6.36
2019-01-21T05:38:46.608Z,-6.40
2019-01-21T05:41:47.521Z,-6.38
2019-01-21T05:44:42.036Z,-6.44
2019-01-21T05:48:06.771Z,-6.43
2019-01-21T05:51:04.661Z,-6.44
2019-01-21T05:53:57.087Z,-6.51
2019-01-21T05:57:00.141Z,-6.50
2019-01-21T06:00:01.550Z,-6.49
2019-01-21T06:03:02.607Z,-6.49
2019-01-21T06:05:44.848Z,-6.51
2019-01-21T06:09:07.648Z,-6.46
2019-01-21T06:11:49.839Z,-6.54
2019-01-21T06:15:05.723Z,-6.58
2019-01-21T06:18:10.672Z,-6.56
2019-01-21T06:21:13.503Z,-6.63
2019-01-21T06:24:13.151Z,-6.63
2019-01-21T06:27:05.701Z,-6.69
2019-01-21T06:30:03.700Z,-6.64
2019-01-21T06:33:04.753Z,-6.64
2019-01-21T06:35:53.613Z,-6.59
2019-01-21T06:39:13.037Z,-6.56
2019-01-21T06:42:15.382Z,-6.55
2019-01-21T06:45:28.419Z,-6.60
2019-01-21T06:48:20.237Z,-6.58
2019-01-21T06:51:09.390Z,-6.57
2019-01-21T06:54:13.782Z,-6.51
2019-01-21T06:57:05.787Z,-6.50
2019-01-21T07:00:06.369Z,-6.50
2019-01-21T07:03:05.177Z,-6.59
2019-01-21T07:05:49.211Z,-6.60
2019-01-21T07:09:02.456Z,-6.61
2019-01-21T07:11:53.904Z,-6.72
2019-01-21T07:15:09.707Z,-6.69
2019-01-21T07:18:26.037Z,-6.57
2019-01-21T07:21:18.905Z,-6.51
2019-01-21T07:24:21.006Z,-6.43
2019-01-21T07:27:15.993Z,-6.60
2019-01-21T07:30:07.903Z,-6.39
2019-01-21T07:32:59.085Z,-6.61
2019-01-21T07:36:14.115Z,-6.65
2019-01-21T07:39:10.162Z,-6.88
2019-01-21T07:42:04.208Z,-6.98
2019-01-21T07:45:15.061Z,-7.05
2019-01-21T07:48:03.133Z,-6.97
2019-01-21T07:51:19.277Z,-6.87
2019-01-21T07:54:16.146Z,-6.87
2019-01-21T07:57:38.045Z,-6.74
2019-01-21T08:00:58.467Z,-6.58
2019-01-21T08:04:03.409Z,-6.42
2019-01-21T08:06:39.708Z,-6.37
2019-01-21T08:09:48.694Z,-6.35
2019-01-21T08:13:10.347Z,-6.36
2019-01-21T08:16:04.464Z,-6.18
2019-01-21T08:19:25.883Z,-6.05
2019-01-21T08:22:24.127Z,-5.88
2019-01-21T08:25:37.360Z,-5.71
2019-01-21T08:28:29.058Z,-5.66
2019-01-21T08:31:32.496Z,-5.50
2019-01-21T08:34:36.656Z,-5.41
2019-01-21T08:37:35.552Z,-5.04
2019-01-21T08:40:16.619Z,-5.13
2019-01-21T08:43:42.134Z,-4.99
2019-01-21T08:46:26.166Z,-4.72
2019-01-21T08:49:22.108Z,-4.68
2019-01-21T08:52:26.021Z,-4.43
2019-01-21T08:55:19.940Z,-4.27
2019-01-21T08:58:26.929Z,-4.23
2019-01-21T09:01:27.172Z,-4.18
2019-01-21T09:04:37.840Z,-4.17
2019-01-21T09:07:47.928Z,-4.35
2019-01-21T09:10:53.891Z,-4.13
2019-01-21T09:13:50.643Z,-4.23
2019-01-21T09:16:48.552Z,-4.29
2019-01-21T09:20:10.790Z,-4.60
2019-01-21T09:22:51.483Z,-4.47
2019-01-21T09:25:40.653Z,-4.31
2019-01-21T09:28:46.227Z,-4.22
2019-01-21T09:32:06.300Z,-4.12
2019-01-21T09:35:17.260Z,-3.95
2019-01-21T09:38:20.838Z,-4.02
2019-01-21T09:41:34.510Z,-4.00
2019-01-21T09:44:20.907Z,-4.15
2019-01-21T09:46:49.068Z,-4.11
2019-01-21T09:49:16.440Z,-4.09
2019-01-21T09:52:08.420Z,-3.93
2019-01-21T09:54:39.163Z,-3.93
2019-01-21T09:57:09.737Z,-3.99
2019-01-21T09:59:38.696Z,-3.97
2019-01-21T10:02:08.839Z,-4.02
2019-01-21T10:04:51.320Z,-3.95
2019-01-21T10:07:33.142Z,-3.76
2019-01-21T10:10:11.481Z,-3.72
2019-01-21T10:13:06.893Z,-3.68
2019-01-21T10:15:58.157Z,-3.47
2019-01-21T10:19:04.915Z,-3.47
2019-01-21T10:21:58.009Z,-3.40
2019-01-21T10:24:44.020Z,-3.43
2019-01-21T10:28:02.273Z,-3.48
2019-01-21T10:31:01.367Z,-3.42
2019-01-21T10:34:15.669Z,-3.26
2019-01-21T10:37:34.597Z,-3.24
2019-01-21T10:40:26.804Z,-3.10
2019-01-21T10:43:39.495Z,-3.01
2019-01-21T10:46:17.964Z,-2.85
2019-01-21T10:49:40.210Z,-2.82
2019-01-21T10:52:23.291Z,-2.81
2019-01-21T10:55:29.821Z,-2.61
2019-01-21T10:58:24.018Z,-2.56
2019-01-21T11:01:39.346Z,-2.47
2019-01-21T11:04:31.187Z,-2.38
2019-01-21T11:07:40.065Z,-2.47
2019-01-21T11:10:35.199Z,-2.39
2019-01-21T11:13:32.532Z,-2.35
2019-01-21T11:16:15.252Z,-2.18
2019-01-21T11:19:11.472Z,-2.16
2019-01-21T11:21:54.535Z,-2.19
2019-01-21T11:24:47.589Z,-2.16
2019-01-21T11:27:37.208Z,-1.98
2019-01-21T11:30:59.206Z,-2.07
2019-01-21T11:34:14.035Z,-1.73
2019-01-21T11:37:36.088Z,-1.56
2019-01-21T11:40:30.350Z,-2.09
2019-01-21T11:43:39.344Z,-1.98
2019-01-21T11:46:44.569Z,-1.59
2019-01-21T11:49:42.580Z,-1.80
2019-01-21T11:52:21.311Z,-1.85
2019-01-21T11:55:36.421Z,-1.74
2019-01-21T11:58:29.774Z,-1.54
2019-01-21T12:01:34.884Z,-1.37
2019-01-21T12:04:13.951Z,-1.47
2019-01-21T12:07:35.095Z,-1.42
2019-01-21T12:10:52.890Z,-0.93
2019-01-21T12:14:09.638Z,-0.87
2019-01-21T12:17:18.578Z,-0.86
2019-01-21T12:20:16.871Z,-0.95
2019-01-21T12:23:21.739Z,-0.94
2019-01-21T12:26:04.586Z,-1.09
2019-01-21T12:29:09.708Z,-1.07
2019-01-21T12:32:01.742Z,-0.70
2019-01-21T12:34:46.674Z,-0.48
2019-01-21T12:37:41.689Z,-0.50
2019-01-21T12:40:52.414Z,-0.43
2019-01-21T12:43:44.716Z,-0.68
2019-01-21T12:46:37.518Z,-0.39
2019-01-21T12:49:59.688Z,-0.19
2019-01-21T12:52:53.808Z,-0.06
2019-01-21T12:55:39.953Z,-0.55
2019-01-21T12:58:25.165Z,-0.51
2019-01-21T13:01:20.863Z,-0.22
2019-01-21T13:04:26.670Z,-0.53
2019-01-21T13:07:34.965Z,-0.43
2019-01-21T13:10:32.875Z,-0.20
2019-01-21T13:13:43.323Z,-0.21
2019-01-21T13:16:40.340Z,0.04
2019-01-21T13:19:53.396Z,0.01
2019-01-21T13:23:06.507Z,0.08
2019-01-21T13:26:25.401Z,0.24
2019-01-21T13:29:38.713Z,0.28
2019-01-21T13:32:49.767Z,0.13
2019-01-21T13:35:43.278Z,0.25
2019-01-21T13:39:14.467Z,0.16
2019-01-21T13:42:01.031Z,0.26
2019-01-21T13:44:43.406Z,0.42
2019-01-21T13:47:50.567Z,0.44
2019-01-21T13:50:56.583Z,0.20
2019-01-21T13:54:12.294Z,-0.02
2019-01-21T13:57:07.089Z,-0.01
2019-01-21T14:00:05.150Z,0.00
2019-01-21T14:02:42.576Z,-0.16
2019-01-21T14:05:45.615Z,-0.14
2019-01-21T14:08:22.805Z,0.00
2019-01-21T14:11:16.387Z,0.07
2019-01-21T14:14:16.823Z,0.21
2019-01-21T14:17:11.440Z,0.29
2019-01-21T14:20:16.940Z,0.45
2019-01-21T14:22:59.109Z,0.50
2019-01-21T14:25:52.044Z,0.59
2019-01-21T14:28:54.023Z,0.64
2019-01-21T14:32:02.830Z,0.51
2019-01-21T14:34:47.751Z,0.61
2019-01-21T14:37:47.598Z,0.57
2019-01-21T14:40:42.855Z,0.57
2019-01-21T14:43:58.051Z,0.48
2019-01-21T14:47:08.432Z,0.60
2019-01-21T14:49:50.542Z,0.55
2019-01-21T14:52:55.851Z,0.48
2019-01-21T14:55:58.923Z,0.18
2019-01-21T14:58:44.343Z,0.32
2019-01-21T15:01:41.531Z,0.09
2019-01-21T15:04:56.460Z,-0.05
2019-01-21T15:07:40.922Z,-0.12
2019-01-21T15:10:32.877Z,-0.48
2019-01-21T15:13:28.849Z,-0.58
2019-01-21T15:16:29.407Z,-0.54
2019-01-21T15:19:19.752Z,-0.64
2019-01-21T15:22:38.787Z,-0.70
2019-01-21T15:25:26.032Z,-0.71
2019-01-21T15:28:23.264Z,-0.75
2019-01-21T15:31:13.501Z,-0.81
2019-01-21T15:34:05.611Z,-0.91
2019-01-21T15:37:09.158Z,-0.95
2019-01-21T15:39:55.603Z,-0.95
2019-01-21T15:42:46.359Z,-1.05
2019-01-21T15:45:51.782Z,-1.11
2019-01-21T15:48:46.451Z,-1.12
2019-01-21T15:51:50.836Z,-1.17
2019-01-21T15:55:06.404Z,-1.17
2019-01-21T15:58:05.222Z,-1.23
2019-01-21T16:01:02.494Z,-1.29
2019-01-21T16:03:51.388Z,-1.33
2019-01-21T16:06:48.448Z,-1.43
2019-01-21T16:10:16.009Z,-1.56
2019-01-21T16:13:03.315Z,-1.66
2019-01-21T16:16:14.580Z,-1.80
2019-01-21T16:18:55.031Z,-1.80
2019-01-21T16:22:22.312Z,-1.89
2019-01-21T16:25:41.601Z,-1.92
2019-01-21T16:29:07.981Z,-2.15
2019-01-21T16:32:06.258Z,-2.20
2019-01-21T16:35:18.898Z,-2.25
2019-01-21T16:38:32.159Z,-2.33
2019-01-21T16:41:36.970Z,-2.33
2019-01-21T16:44:05.931Z,-2.41
2019-01-21T16:46:34.747Z,-2.45
2019-01-21T16:49:03.611Z,-2.46
2019-01-21T16:51:32.480Z,-2.53
2019-01-21T16:54:01.458Z,-2.59
2019-01-21T16:56:30.243Z,-2.60
2019-01-21T16:58:59.106Z,-2.59
2019-01-21T17:01:28.053Z,-2.60
2019-01-21T17:03:57.671Z,-2.61
2019-01-21T17:06:26.561Z,-2.52
2019-01-21T17:08:55.422Z,-2.60
2019-01-21T17:11:24.324Z,-2.73
2019-01-21T17:13:53.183Z,-2.88
2019-01-21T17:16:22.094Z,-2.97
2019-01-21T17:18:50.978Z,-2.95
2019-01-21T17:21:19.919Z,-2.93
2019-01-21T17:23:48.722Z,-2.72
2019-01-21T17:26:17.663Z,-2.72
2019-01-21T17:28:46.459Z,-2.68
2019-01-21T17:31:15.331Z,-2.88
2019-01-21T17:33:44.119Z,-2.94
2019-01-21T17:36:13.072Z,-3.08
2019-01-21T17:38:41.932Z,-3.09
2019-01-21T17:41:10.809Z,-3.09
2019-01-21T17:43:39.596Z,-3.05
2019-01-21T17:46:08.483Z,-3.23
2019-01-21T17:48:37.358Z,-3.30
2019-01-21T17:51:06.339Z,-3.25
2019-01-21T17:53:35.140Z,-3.27
2019-01-21T17:56:04.357Z,-3.37
2019-01-21T17:58:33.272Z,-3.39
2019-01-21T18:01:02.219Z,-3.36
2019-01-21T18:03:30.999Z,-3.41
2019-01-21T18:06:00.263Z,-3.43
2019-01-21T18:08:29.058Z,-3.45
2019-01-21T18:10:57.910Z,-3.52
2019-01-21T18:13:26.737Z,-3.61
2019-01-21T18:15:55.546Z,-3.63
2019-01-21T18:18:24.411Z,-3.74
2019-01-21T18:20:53.214Z,-3.65
2019-01-21T18:23:22.148Z,-3.74
2019-01-21T18:25:51.033Z,-3.83
2019-01-21T18:28:19.900Z,-3.91
2019-01-21T18:30:48.791Z,-4.06
2019-01-21T18:33:17.724Z,-4.03
2019-01-21T18:35:46.592Z,-4.03
2019-01-21T18:38:15.570Z,-4.06
2019-01-21T18:40:44.394Z,-4.05
2019-01-21T18:43:13.285Z,-4.07
2019-01-21T18:45:42.579Z,-4.06
2019-01-21T18:48:11.552Z,-4.03
2019-01-21T18:50:40.618Z,-4.15
2019-01-21T18:53:09.479Z,-4.27
2019-01-21T18:55:38.440Z,-4.24
2019-01-21T18:58:07.312Z,-4.32
2019-01-21T19:00:36.196Z,-4.32
2019-01-21T19:03:05.703Z,-4.34
2019-01-21T19:05:34.510Z,-4.38
2019-01-21T19:08:03.490Z,-4.42
2019-01-21T19:10:32.764Z,-4.47
2019-01-21T19:13:03.014Z,-4.43
2019-01-21T19:15:33.523Z,-4.53
2019-01-21T19:18:03.846Z,-4.43
2019-01-21T19:20:33.247Z,-4.43
2019-01-21T19:23:02.185Z,-4.54
2019-01-21T19:25:31.020Z,-4.56
2019-01-21T19:27:59.935Z,-4.60
2019-01-21T19:30:29.214Z,-4.58
2019-01-21T19:32:58.157Z,-4.59
2019-01-21T19:35:29.891Z,-4.64
2019-01-21T19:37:58.775Z,-4.67
2019-01-21T19:40:27.748Z,-4.73
2019-01-21T19:42:56.685Z,-4.77
2019-01-21T19:45:25.562Z,-4.83
2019-01-21T19:47:54.458Z,-4.79
2019-01-21T19:50:23.933Z,-4.77
2019-01-21T19:52:52.881Z,-4.85
2019-01-21T19:55:27.460Z,-4.86
2019-01-21T19:57:56.337Z,-4.85
2019-01-21T20:00:25.583Z,-4.84
2019-01-21T20:02:54.639Z,-4.91
2019-01-21T20:05:23.568Z,-4.61
2019-01-21T20:07:52.472Z,-4.77
2019-01-21T20:10:21.554Z,-4.92
2019-01-21T20:12:50.509Z,-4.98
2019-01-21T20:15:19.557Z,-5.16
2019-01-21T20:17:48.511Z,-5.24
2019-01-21T20:20:23.136Z,-5.22
2019-01-21T20:22:57.453Z,-5.35
2019-01-21T20:25:22.739Z,-5.35
2019-01-21T20:27:51.546Z,-5.36
2019-01-21T20:30:21.105Z,-5.47
2019-01-21T20:32:49.973Z,-5.48
2019-01-21T20:35:19.062Z,-5.54
2019-01-21T20:37:48.015Z,-5.57
2019-01-21T20:40:19.885Z,-5.59
2019-01-21T20:42:48.765Z,-5.55
2019-01-21T20:45:18.056Z,-5.44
2019-01-21T20:47:46.915Z,-5.47
2019-01-21T20:50:20.924Z,-5.53
2019-01-21T20:52:49.822Z,-5.68
2019-01-21T20:55:19.250Z,-5.74
2019-01-21T20:57:48.292Z,-5.74
2019-01-21T21:00:22.270Z,-5.86
2019-01-21T21:02:51.497Z,-5.77
2019-01-21T21:05:20.641Z,-5.70
2019-01-21T21:07:49.448Z,-5.70
2019-01-21T21:10:18.505Z,-5.71
2019-01-21T21:12:47.458Z,-5.70
2019-01-21T21:15:25.768Z,-5.78
2019-01-21T21:17:54.646Z,-5.86
2019-01-21T21:20:23.517Z,-5.80
2019-01-21T21:22:52.464Z,-5.84
2019-01-21T21:25:21.812Z,-5.95
2019-01-21T21:27:50.599Z,-5.95
2019-01-21T21:30:22.214Z,-5.84
2019-01-21T21:32:51.079Z,-5.91
2019-01-21T21:35:20.328Z,-5.88
2019-01-21T21:37:49.192Z,-5.76
2019-01-21T21:40:19.252Z,-5.70
2019-01-21T21:42:48.199Z,-5.62
2019-01-21T21:45:17.884Z,-5.58
2019-01-21T21:47:46.834Z,-5.65
2019-01-21T21:50:18.350Z,-5.85
2019-01-21T21:52:47.217Z,-5.95
2019-01-21T21:55:16.271Z,-5.99
2019-01-21T21:57:45.128Z,-6.05
2019-01-21T22:02:43.451Z,-6.08
2019-01-21T22:05:12.748Z,-6.08
2019-01-21T22:07:41.494Z,-6.10
2019-01-21T22:10:13.060Z,-6.19
2019-01-21T22:12:41.978Z,-6.31
2019-01-21T22:15:13.431Z,-6.17
2019-01-21T22:17:42.225Z,-6.19
2019-01-21T22:20:14.300Z,-6.19
2019-01-21T22:22:43.160Z,-6.23
2019-01-21T22:25:12.204Z,-6.36
2019-01-21T22:27:40.995Z,-6.41
2019-01-21T22:30:12.998Z,-6.34
2019-01-21T22:32:41.865Z,-6.34
2019-01-21T22:35:11.262Z,-6.26
2019-01-21T22:37:40.082Z,-6.11
2019-01-21T22:40:11.716Z,-6.08
2019-01-21T22:42:41.407Z,-6.02
2019-01-21T22:45:11.259Z,-6.05
2019-01-21T22:47:40.097Z,-5.97
2019-01-21T22:50:10.360Z,-5.99
2019-01-21T22:52:42.073Z,-5.97
2019-01-21T22:55:11.129Z,-5.93
2019-01-21T22:57:40.118Z,-5.91
2019-01-21T23:00:18.073Z,-5.85
2019-01-21T23:02:46.868Z,-5.90
2019-01-21T23:05:16.488Z,-5.93
2019-01-21T23:07:45.311Z,-6.05
2019-01-21T23:10:14.277Z,-6.38
2019-01-21T23:12:43.095Z,-6.56
2019-01-21T23:15:12.437Z,-6.67
2019-01-21T23:17:42.370Z,-6.80
2019-01-21T23:20:11.366Z,-6.90
2019-01-21T23:22:40.162Z,-7.02
2019-01-21T23:25:09.118Z,-7.06
2019-01-21T23:27:38.294Z,-7.05
2019-01-21T23:30:09.802Z,-7.02
2019-01-21T23:32:38.586Z,-7.05
2019-01-21T23:35:07.682Z,-7.08
2019-01-21T23:37:36.624Z,-7.09
2019-01-21T23:40:06.473Z,-7.12
2019-01-21T23:42:35.414Z,-7.09
2019-01-21T23:45:05.587Z,-7.12
2019-01-21T23:47:34.655Z,-7.10
2019-01-21T23:50:04.202Z,-6.97
2019-01-21T23:52:32.992Z,-6.94
2019-01-21T23:55:02.458Z,-6.83
2019-01-21T23:57:31.440Z,-6.73
